sensor_id;sensor_type;location;lat;lon;timestamp;pressure;altitude;pressure_sealevel;temperature;humidity
72975;BME280;74127;54.228;37.632;2024-01-15T00:02:13;974.9889;;;-6.99;89.34961
72975;BME280;74127;54.228;37.632;2024-01-15T00:06:13;974.9901;;;-6.92;89.41504
72975;BME280;74127;54.228;37.632;2024-01-15T00:10:13;974.9901;;;-6.92;89.41504
72975;BME280;74127;54.228;37.632;2024-01-15T00:14:13;974.9376;;;-6.85;89.60645
72975;BME280;74127;54.228;37.632;2024-01-15T00:18:13;974.8759;;;-6.76;89.56445
72975;BME280;74127;54.228;37.632;2024-01-15T00:22:13;974.8864;;;-6.62;89.77051
72975;BME280;74127;54.228;37.632;2024-01-15T00:26:13;974.8692;;;-6.54;89.74512
72975;BME280;74127;54.228;37.632;2024-01-15T00:30:13;974.8692;;;-6.54;89.74512
72975;BME280;74127;54.228;37.632;2024-01-15T00:34:13;974.7944;;;-6.52;89.70703
72975;BME280;74127;54.228;37.632;2024-01-15T00:38:13;974.7607;;;-6.5;89.65918
72975;BME280;74127;54.228;37.632;2024-01-15T00:42:13;974.743;;;-6.47;89.65527
72975;BME280;74127;54.228;37.632;2024-01-15T00:46:13;974.7289;;;-6.52;89.43848
72975;BME280;74127;54.228;37.632;2024-01-15T00:50:13;974.7289;;;-6.52;89.43848
72975;BME280;74127;54.228;37.632;2024-01-15T00:54:13;974.7645;;;-6.5;89.47559
72975;BME280;74127;54.228;37.632;2024-01-15T00:58:13;974.6598;;;-6.46;89.52246
72975;BME280;74127;54.228;37.632;2024-01-15T01:02:13;974.6699;;;-6.44;89.54785
72975;BME280;74127;54.228;37.632;2024-01-15T01:06:13;974.6588;;;-6.45;89.49512
72975;BME280;74127;54.228;37.632;2024-01-15T01:10:13;974.6588;;;-6.45;89.49512
72975;BME280;74127;54.228;37.632;2024-01-15T01:14:13;974.6213;;;-6.41;89.55566
72975;BME280;74127;54.228;37.632;2024-01-15T01:18:13;974.5425;;;-6.42;89.4082
72975;BME280;74127;54.228;37.632;2024-01-15T01:22:13;974.6114;;;-6.45;89.36133
72975;BME280;74127;54.228;37.632;2024-01-15T01:26:16;974.4486;;;-6.45;89.37109
72975;BME280;74127;54.228;37.632;2024-01-15T01:30:13;974.4486;;;-6.45;89.37109
72975;BME280;74127;54.228;37.632;2024-01-15T01:34:14;974.4402;;;-6.4;89.43359
72975;BME280;74127;54.228;37.632;2024-01-15T01:38:13;974.3845;;;-6.33;89.5625
72975;BME280;74127;54.228;37.632;2024-01-15T01:42:13;974.2877;;;-6.28;89.57227
72975;BME280;74127;54.228;37.632;2024-01-15T01:46:13;974.3069;;;-6.23;89.61328
72975;BME280;74127;54.228;37.632;2024-01-15T01:50:13;974.3069;;;-6.23;89.61328
72975;BME280;74127;54.228;37.632;2024-01-15T01:54:13;974.2375;;;-6.16;89.69141
72975;BME280;74127;54.228;37.632;2024-01-15T01:58:13;974.1618;;;-6.11;89.83594
72975;BME280;74127;54.228;37.632;2024-01-15T02:02:13;974.1089;;;-6.1;89.78809
72975;BME280;74127;54.228;37.632;2024-01-15T02:06:13;974.1656;;;-6.11;89.75391
72975;BME280;74127;54.228;37.632;2024-01-15T02:10:13;974.1656;;;-6.11;89.75391
72975;BME280;74127;54.228;37.632;2024-01-15T02:14:13;974.0817;;;-6.09;89.78809
72975;BME280;74127;54.228;37.632;2024-01-15T02:22:13;974.048;;;-6.05;89.77539
72975;BME280;74127;54.228;37.632;2024-01-15T02:26:13;974.0059;;;-6.04;89.94531
72975;BME280;74127;54.228;37.632;2024-01-15T02:30:13;974.0059;;;-6.04;89.94531
72975;BME280;74127;54.228;37.632;2024-01-15T02:34:13;974.0627;;;-6.02;89.94727
72975;BME280;74127;54.228;37.632;2024-01-15T02:38:13;973.9888;;;-5.99;89.95508
72975;BME280;74127;54.228;37.632;2024-01-15T02:42:13;973.9341;;;-5.93;89.99805
72975;BME280;74127;54.228;37.632;2024-01-15T02:46:13;973.8251;;;-5.91;89.9707
72975;BME280;74127;54.228;37.632;2024-01-15T02:50:13;973.8251;;;-5.91;89.9707
72975;BME280;74127;54.228;37.632;2024-01-15T02:54:13;973.8638;;;-5.87;89.94824
72975;BME280;74127;54.228;37.632;2024-01-15T02:58:14;973.8959;;;-5.87;89.9834
72975;BME280;74127;54.228;37.632;2024-01-15T03:02:13;973.928;;;-5.81;90.07617
72975;BME280;74127;54.228;37.632;2024-01-15T03:06:13;973.9294;;;-5.79;90.16309
72975;BME280;74127;54.228;37.632;2024-01-15T03:10:13;973.9294;;;-5.79;90.16309
72975;BME280;74127;54.228;37.632;2024-01-15T03:14:13;973.8872;;;-5.77;90.10645
72975;BME280;74127;54.228;37.632;2024-01-15T03:18:13;973.9578;;;-5.74;90.20605
72975;BME280;74127;54.228;37.632;2024-01-15T03:22:13;973.9598;;;-5.72;90.14746
72975;BME280;74127;54.228;37.632;2024-01-15T03:26:13;973.818;;;-5.68;90.21973
72975;BME280;74127;54.228;37.632;2024-01-15T03:30:13;973.818;;;-5.68;90.21973
72975;BME280;74127;54.228;37.632;2024-01-15T03:34:13;973.8328;;;-5.61;90.2334
72975;BME280;74127;54.228;37.632;2024-01-15T03:38:13;973.7466;;;-5.56;90.27441
72975;BME280;74127;54.228;37.632;2024-01-15T03:42:13;973.7397;;;-5.54;90.31152
72975;BME280;74127;54.228;37.632;2024-01-15T03:46:13;973.7311;;;-5.54;90.30176
72975;BME280;74127;54.228;37.632;2024-01-15T03:50:13;973.7311;;;-5.54;90.30176
72975;BME280;74127;54.228;37.632;2024-01-15T03:54:13;973.6401;;;-5.52;90.32422
72975;BME280;74127;54.228;37.632;2024-01-15T03:58:13;973.6889;;;-5.49;90.29883
72975;BME280;74127;54.228;37.632;2024-01-15T04:02:13;973.6531;;;-5.44;90.38379
72975;BME280;74127;54.228;37.632;2024-01-15T04:06:13;973.718;;;-5.39;90.43555
72975;BME280;74127;54.228;37.632;2024-01-15T04:10:13;973.718;;;-5.39;90.43555
72975;BME280;74127;54.228;37.632;2024-01-15T04:14:13;973.7209;;;-5.36;90.46387
72975;BME280;74127;54.228;37.632;2024-01-15T04:18:15;973.7589;;;-5.31;90.47363
72975;BME280;74127;54.228;37.632;2024-01-15T04:22:13;973.7166;;;-5.35;90.24805
72975;BME280;74127;54.228;37.632;2024-01-15T04:26:13;973.6409;;;-5.3;90.39258
72975;BME280;74127;54.228;37.632;2024-01-15T04:30:13;973.6409;;;-5.3;90.39258
72975;BME280;74127;54.228;37.632;2024-01-15T04:34:13;973.7881;;;-5.3;90.43457
72975;BME280;74127;54.228;37.632;2024-01-15T04:38:13;973.7495;;;-5.31;90.30762
72975;BME280;74127;54.228;37.632;2024-01-15T04:42:14;973.5809;;;-5.3;90.32031
72975;BME280;74127;54.228;37.632;2024-01-15T04:46:13;973.6657;;;-5.33;90.18945
72975;BME280;74127;54.228;37.632;2024-01-15T04:50:13;973.6657;;;-5.33;90.18945
72975;BME280;74127;54.228;37.632;2024-01-15T04:54:13;973.6845;;;-5.32;90.23145
72975;BME280;74127;54.228;37.632;2024-01-15T04:58:13;973.6983;;;-5.32;90.2832
72975;BME280;74127;54.228;37.632;2024-01-15T05:02:13;973.6559;;;-5.36;90.16113
72975;BME280;74127;54.228;37.632;2024-01-15T05:06:13;973.675;;;-5.41;90.03711
72975;BME280;74127;54.228;37.632;2024-01-15T05:10:13;973.675;;;-5.41;90.03711
72975;BME280;74127;54.228;37.632;2024-01-15T05:14:13;973.7216;;;-5.41;90.13086
72975;BME280;74127;54.228;37.632;2024-01-15T05:18:13;973.7213;;;-5.52;89.88867
72975;BME280;74127;54.228;37.632;2024-01-15T05:22:13;973.6917;;;-5.58;89.8457
72975;BME280;74127;54.228;37.632;2024-01-15T05:26:13;973.7067;;;-5.55;89.99707
72975;BME280;74127;54.228;37.632;2024-01-15T05:30:13;973.7067;;;-5.55;89.99707
72975;BME280;74127;54.228;37.632;2024-01-15T05:34:13;973.7525;;;-5.53;89.99023
72975;BME280;74127;54.228;37.632;2024-01-15T05:38:13;973.7171;;;-5.5;90.08984
72975;BME280;74127;54.228;37.632;2024-01-15T05:42:13;973.7328;;;-5.44;90.20703
72975;BME280;74127;54.228;37.632;2024-01-15T05:46:13;973.8109;;;-5.44;90.17676
72975;BME280;74127;54.228;37.632;2024-01-15T05:50:13;973.8109;;;-5.44;90.17676
72975;BME280;74127;54.228;37.632;2024-01-15T05:54:13;973.8172;;;-5.38;90.30273
72975;BME280;74127;54.228;37.632;2024-01-15T05:58:13;973.7915;;;-5.37;90.29395
72975;BME280;74127;54.228;37.632;2024-01-15T06:02:13;973.7938;;;-5.33;90.31445
72975;BME280;74127;54.228;37.632;2024-01-15T06:06:13;973.8293;;;-5.29;90.34277
72975;BME280;74127;54.228;37.632;2024-01-15T06:10:13;973.8293;;;-5.29;90.34277
72975;BME280;74127;54.228;37.632;2024-01-15T06:14:13;973.8661;;;-5.22;90.46094
72975;BME280;74127;54.228;37.632;2024-01-15T06:18:13;973.8337;;;-5.15;90.4668
72975;BME280;74127;54.228;37.632;2024-01-15T06:22:13;973.8322;;;-5.05;90.47754
72975;BME280;74127;54.228;37.632;2024-01-15T06:26:13;973.81;;;-4.99;90.5
72975;BME280;74127;54.228;37.632;2024-01-15T06:30:14;973.81;;;-4.99;90.5
72975;BME280;74127;54.228;37.632;2024-01-15T06:34:14;973.7271;;;-4.88;90.63867
72975;BME280;74127;54.228;37.632;2024-01-15T06:38:13;973.7414;;;-4.8;90.6543
72975;BME280;74127;54.228;37.632;2024-01-15T06:42:13;973.8194;;;-4.73;90.62109
72975;BME280;74127;54.228;37.632;2024-01-15T06:46:19;973.8039;;;-4.67;90.57031
72975;BME280;74127;54.228;37.632;2024-01-15T06:50:13;973.8039;;;-4.67;90.57031
72975;BME280;74127;54.228;37.632;2024-01-15T06:54:13;973.8412;;;-4.61;90.48828
72975;BME280;74127;54.228;37.632;2024-01-15T06:58:13;973.8066;;;-4.5;90.56445
72975;BME280;74127;54.228;37.632;2024-01-15T07:02:14;973.8384;;;-4.39;90.54492
72975;BME280;74127;54.228;37.632;2024-01-15T07:06:14;973.81;;;-4.34;90.41113
72975;BME280;74127;54.228;37.632;2024-01-15T07:10:14;973.81;;;-4.34;90.41113
72975;BME280;74127;54.228;37.632;2024-01-15T07:14:14;973.906;;;-4.28;90.23633
72975;BME280;74127;54.228;37.632;2024-01-15T07:18:14;973.782;;;-4.23;90.14453
72975;BME280;74127;54.228;37.632;2024-01-15T07:22:14;973.8842;;;-4.12;90.20996
72975;BME280;74127;54.228;37.632;2024-01-15T07:26:14;973.816;;;-4.05;90.12988
72975;BME280;74127;54.228;37.632;2024-01-15T07:30:14;973.816;;;-4.05;90.12988
72975;BME280;74127;54.228;37.632;2024-01-15T07:34:14;973.8962;;;-4.02;90.04395
72975;BME280;74127;54.228;37.632;2024-01-15T07:38:14;973.8533;;;-3.9;90.16211
72975;BME280;74127;54.228;37.632;2024-01-15T07:42:14;973.8848;;;-3.79;90.22754
72975;BME280;74127;54.228;37.632;2024-01-15T07:46:14;973.8345;;;-3.71;90.22266
72975;BME280;74127;54.228;37.632;2024-01-15T07:50:14;973.8345;;;-3.71;90.22266
72975;BME280;74127;54.228;37.632;2024-01-15T07:54:14;973.735;;;-3.66;90.17188
72975;BME280;74127;54.228;37.632;2024-01-15T07:58:14;973.8929;;;-3.69;89.79102
72975;BME280;74127;54.228;37.632;2024-01-15T08:02:14;973.9113;;;-3.68;89.59277
72975;BME280;74127;54.228;37.632;2024-01-15T08:06:14;973.9009;;;-3.68;89.75977
72975;BME280;74127;54.228;37.632;2024-01-15T08:10:14;973.9009;;;-3.68;89.75977
72975;BME280;74127;54.228;37.632;2024-01-15T08:14:14;973.8523;;;-3.62;89.87793
72975;BME280;74127;54.228;37.632;2024-01-15T08:18:14;973.831;;;-3.6;89.88184
72975;BME280;74127;54.228;37.632;2024-01-15T08:22:14;973.8456;;;-3.46;90.16309
72975;BME280;74127;54.228;37.632;2024-01-15T08:26:14;973.8214;;;-3.36;90.13086
72975;BME280;74127;54.228;37.632;2024-01-15T08:30:14;973.8214;;;-3.36;90.13086
72975;BME280;74127;54.228;37.632;2024-01-15T08:34:14;973.8095;;;-3.32;90.05762
72975;BME280;74127;54.228;37.632;2024-01-15T08:38:14;973.8063;;;-3.14;90.36621
72975;BME280;74127;54.228;37.632;2024-01-15T08:42:14;973.7512;;;-2.9;90.57227
72975;BME280;74127;54.228;37.632;2024-01-15T08:46:14;973.7358;;;-2.73;90.62891
72975;BME280;74127;54.228;37.632;2024-01-15T08:50:14;973.7358;;;-2.73;90.62891
72975;BME280;74127;54.228;37.632;2024-01-15T08:54:14;973.7595;;;-2.79;90.19922
72975;BME280;74127;54.228;37.632;2024-01-15T08:58:14;973.7533;;;-2.77;90.24512
72975;BME280;74127;54.228;37.632;2024-01-15T09:02:14;973.6421;;;-2.67;90.33008
72975;BME280;74127;54.228;37.632;2024-01-15T09:06:14;973.7477;;;-2.65;90.21094
72975;BME280;74127;54.228;37.632;2024-01-15T09:10:14;973.7477;;;-2.65;90.21094
72975;BME280;74127;54.228;37.632;2024-01-15T09:14:14;973.713;;;-2.55;90.38477
72975;BME280;74127;54.228;37.632;2024-01-15T09:18:14;973.7074;;;-2.44;90.53418
72975;BME280;74127;54.228;37.632;2024-01-15T09:22:14;973.7346;;;-2.55;90.10449
72975;BME280;74127;54.228;37.632;2024-01-15T09:26:14;973.7067;;;-2.56;90.41406
72975;BME280;74127;54.228;37.632;2024-01-15T09:30:14;973.7067;;;-2.56;90.41406
72975;BME280;74127;54.228;37.632;2024-01-15T09:34:14;973.8067;;;-2.68;90.42188
72975;BME280;74127;54.228;37.632;2024-01-15T09:38:14;973.8196;;;-2.83;90.41113
72975;BME280;74127;54.228;37.632;2024-01-15T09:42:14;973.8394;;;-2.75;90.85449
72975;BME280;74127;54.228;37.632;2024-01-15T09:46:14;973.8191;;;-2.63;91.0166
72975;BME280;74127;54.228;37.632;2024-01-15T09:50:14;973.8191;;;-2.63;91.0166
72975;BME280;74127;54.228;37.632;2024-01-15T09:54:14;973.7042;;;-2.57;91.10352
72975;BME280;74127;54.228;37.632;2024-01-15T09:58:14;973.6797;;;-2.47;91.20898
72975;BME280;74127;54.228;37.632;2024-01-15T10:02:14;973.7852;;;-2.42;91.23926
72975;BME280;74127;54.228;37.632;2024-01-15T10:06:17;973.657;;;-2.35;91.24316
72975;BME280;74127;54.228;37.632;2024-01-15T10:10:14;973.657;;;-2.35;91.24316
72975;BME280;74127;54.228;37.632;2024-01-15T10:14:14;973.6928;;;-2.33;91.26855
72975;BME280;74127;54.228;37.632;2024-01-15T10:18:14;973.7369;;;-2.36;91.17871
72975;BME280;74127;54.228;37.632;2024-01-15T10:22:14;973.8413;;;-2.33;91.25781
72975;BME280;74127;54.228;37.632;2024-01-15T10:26:14;973.7935;;;-2.45;91.00391
72975;BME280;74127;54.228;37.632;2024-01-15T10:30:14;973.7935;;;-2.45;91.00391
72975;BME280;74127;54.228;37.632;2024-01-15T10:34:14;973.6392;;;-2.38;91.18457
72975;BME280;74127;54.228;37.632;2024-01-15T10:38:14;973.7008;;;-2.45;91.12891
72975;BME280;74127;54.228;37.632;2024-01-15T10:42:14;973.7377;;;-2.44;91.13086
72975;BME280;74127;54.228;37.632;2024-01-15T10:46:14;973.5809;;;-2.39;91.28711
72975;BME280;74127;54.228;37.632;2024-01-15T10:50:14;973.5809;;;-2.39;91.28711
72975;BME280;74127;54.228;37.632;2024-01-15T10:54:14;973.6577;;;-2.28;91.41602
72975;BME280;74127;54.228;37.632;2024-01-15T10:58:14;973.6642;;;-2.28;91.34082
72975;BME280;74127;54.228;37.632;2024-01-15T11:02:14;973.5969;;;-2.25;91.35938
72975;BME280;74127;54.228;37.632;2024-01-15T11:06:17;973.5438;;;-2.13;91.45801
72975;BME280;74127;54.228;37.632;2024-01-15T11:18:14;973.7133;;;-2.08;91.43652
72975;BME280;74127;54.228;37.632;2024-01-15T11:26:30;973.5786;;;-2.19;91.44434
72975;BME280;74127;54.228;37.632;2024-01-15T11:30:14;973.5786;;;-2.19;91.44434
72975;BME280;74127;54.228;37.632;2024-01-15T11:34:14;973.5932;;;-2.2;91.49414
72975;BME280;74127;54.228;37.632;2024-01-15T11:38:26;973.5842;;;-2.19;91.60059
72975;BME280;74127;54.228;37.632;2024-01-15T11:42:14;973.5201;;;-2.3;91.42188
72975;BME280;74127;54.228;37.632;2024-01-15T11:46:14;973.5397;;;-2.28;91.57227
72975;BME280;74127;54.228;37.632;2024-01-15T11:50:14;973.5397;;;-2.28;91.57227
72975;BME280;74127;54.228;37.632;2024-01-15T11:54:14;973.543;;;-2.28;91.64355
72975;BME280;74127;54.228;37.632;2024-01-15T11:58:14;973.5226;;;-2.24;91.75781
72975;BME280;74127;54.228;37.632;2024-01-15T12:02:14;973.551;;;-2.19;91.83105
72975;BME280;74127;54.228;37.632;2024-01-15T12:06:14;973.5941;;;-2.16;91.87012
72975;BME280;74127;54.228;37.632;2024-01-15T12:10:15;973.5941;;;-2.16;91.87012
72975;BME280;74127;54.228;37.632;2024-01-15T12:14:14;973.5759;;;-2.15;91.78809
72975;BME280;74127;54.228;37.632;2024-01-15T12:18:18;973.4955;;;-2.11;91.85742
72975;BME280;74127;54.228;37.632;2024-01-15T12:22:14;973.4872;;;-2.11;91.86914
72975;BME280;74127;54.228;37.632;2024-01-15T12:26:14;973.5497;;;-2.11;91.81738
72975;BME280;74127;54.228;37.632;2024-01-15T12:30:14;973.5497;;;-2.11;91.81738
72975;BME280;74127;54.228;37.632;2024-01-15T12:34:14;973.5344;;;-2.08;91.89648
72975;BME280;74127;54.228;37.632;2024-01-15T12:38:14;973.6178;;;-2.04;91.98828
72975;BME280;74127;54.228;37.632;2024-01-15T12:42:14;973.5709;;;-2.04;91.93652
72975;BME280;74127;54.228;37.632;2024-01-15T12:46:14;973.6111;;;-2.07;91.90039
72975;BME280;74127;54.228;37.632;2024-01-15T12:50:14;973.6111;;;-2.07;91.90039
72975;BME280;74127;54.228;37.632;2024-01-15T12:54:14;973.6664;;;-2.07;91.84668
72975;BME280;74127;54.228;37.632;2024-01-15T12:58:14;973.7128;;;-2.11;91.85938
72975;BME280;74127;54.228;37.632;2024-01-15T13:02:14;973.6942;;;-2.08;91.90723
72975;BME280;74127;54.228;37.632;2024-01-15T13:06:14;973.7148;;;-2.12;91.87793
72975;BME280;74127;54.228;37.632;2024-01-15T13:10:14;973.7148;;;-2.12;91.87793
72975;BME280;74127;54.228;37.632;2024-01-15T13:14:14;973.6533;;;-2.23;91.70801
72975;BME280;74127;54.228;37.632;2024-01-15T13:18:14;973.5483;;;-2.28;91.69727
72975;BME280;74127;54.228;37.632;2024-01-15T13:22:14;973.6163;;;-2.29;91.72656
72975;BME280;74127;54.228;37.632;2024-01-15T13:26:14;973.4637;;;-2.28;91.8125
72975;BME280;74127;54.228;37.632;2024-01-15T13:30:14;973.4637;;;-2.28;91.8125
72975;BME280;74127;54.228;37.632;2024-01-15T13:34:14;973.5023;;;-2.23;91.875
72975;BME280;74127;54.228;37.632;2024-01-15T13:38:14;973.5153;;;-2.17;91.92871
72975;BME280;74127;54.228;37.632;2024-01-15T13:42:14;973.5051;;;-2.19;91.82031
72975;BME280;74127;54.228;37.632;2024-01-15T13:46:14;973.49;;;-2.13;91.92871
72975;BME280;74127;54.228;37.632;2024-01-15T13:54:14;973.5203;;;-2.07;91.98242
72975;BME280;74127;54.228;37.632;2024-01-15T13:58:14;973.4988;;;-2.05;92.10156
72975;BME280;74127;54.228;37.632;2024-01-15T14:02:14;973.497;;;-2.04;92.08398
72975;BME280;74127;54.228;37.632;2024-01-15T14:06:14;973.5467;;;-2;92.18457
72975;BME280;74127;54.228;37.632;2024-01-15T14:10:14;973.5467;;;-2;92.18457
72975;BME280;74127;54.228;37.632;2024-01-15T14:14:14;973.6721;;;-1.99;92.15918
72975;BME280;74127;54.228;37.632;2024-01-15T14:18:14;973.7112;;;-1.96;92.15234
72975;BME280;74127;54.228;37.632;2024-01-15T14:22:14;973.7043;;;-1.98;92.02344
72975;BME280;74127;54.228;37.632;2024-01-15T14:26:14;973.5606;;;-1.96;91.96484
72975;BME280;74127;54.228;37.632;2024-01-15T14:30:14;973.5606;;;-1.96;91.96484
72975;BME280;74127;54.228;37.632;2024-01-15T14:34:14;973.5778;;;-1.9;91.97852
72975;BME280;74127;54.228;37.632;2024-01-15T14:38:14;973.5767;;;-1.84;92.20996
72975;BME280;74127;54.228;37.632;2024-01-15T14:42:14;973.6219;;;-1.85;92.21875
72975;BME280;74127;54.228;37.632;2024-01-15T14:46:14;973.502;;;-1.79;92.37891
72975;BME280;74127;54.228;37.632;2024-01-15T14:50:14;973.502;;;-1.79;92.37891
72975;BME280;74127;54.228;37.632;2024-01-15T14:54:14;973.4197;;;-1.82;92.44434
72975;BME280;74127;54.228;37.632;2024-01-15T14:58:14;973.4976;;;-1.83;92.53418
72975;BME280;74127;54.228;37.632;2024-01-15T15:02:14;973.56;;;-1.98;92.35742
72975;BME280;74127;54.228;37.632;2024-01-15T15:06:14;973.4471;;;-1.95;92.5498
72975;BME280;74127;54.228;37.632;2024-01-15T15:10:14;973.4471;;;-1.95;92.5498
72975;BME280;74127;54.228;37.632;2024-01-15T15:14:14;973.5173;;;-1.99;92.54395
72975;BME280;74127;54.228;37.632;2024-01-15T15:18:14;973.4224;;;-2.01;92.49805
72975;BME280;74127;54.228;37.632;2024-01-15T15:22:14;973.3336;;;-1.97;92.59961
72975;BME280;74127;54.228;37.632;2024-01-15T15:26:14;973.351;;;-1.91;92.65625
72975;BME280;74127;54.228;37.632;2024-01-15T15:30:14;973.351;;;-1.91;92.65625
72975;BME280;74127;54.228;37.632;2024-01-15T15:34:14;973.3447;;;-1.86;92.70605
72975;BME280;74127;54.228;37.632;2024-01-15T15:38:14;973.3787;;;-1.83;92.70508
72975;BME280;74127;54.228;37.632;2024-01-15T15:42:14;973.394;;;-1.82;92.70508
72975;BME280;74127;54.228;37.632;2024-01-15T15:46:14;973.4858;;;-1.83;92.67188
72975;BME280;74127;54.228;37.632;2024-01-15T15:50:14;973.4858;;;-1.83;92.67188
72975;BME280;74127;54.228;37.632;2024-01-15T15:54:14;973.3736;;;-1.8;92.73242
72975;BME280;74127;54.228;37.632;2024-01-15T15:58:14;973.4239;;;-1.77;92.76758
72975;BME280;74127;54.228;37.632;2024-01-15T16:02:14;973.3139;;;-1.71;92.84473
72975;BME280;74127;54.228;37.632;2024-01-15T16:06:15;973.3472;;;-1.68;92.83008
72975;BME280;74127;54.228;37.632;2024-01-15T16:10:15;973.3472;;;-1.68;92.83008
72975;BME280;74127;54.228;37.632;2024-01-15T16:14:15;973.2452;;;-1.7;92.78418
72975;BME280;74127;54.228;37.632;2024-01-15T16:22:14;973.1742;;;-1.65;92.80469
72975;BME280;74127;54.228;37.632;2024-01-15T16:26:14;973.194;;;-1.62;92.78125
72975;BME280;74127;54.228;37.632;2024-01-15T16:30:15;973.194;;;-1.62;92.78125
72975;BME280;74127;54.228;37.632;2024-01-15T16:34:15;973.1978;;;-1.62;92.76074
72975;BME280;74127;54.228;37.632;2024-01-15T16:38:15;973.0037;;;-1.61;92.73145
72975;BME280;74127;54.228;37.632;2024-01-15T16:42:15;973.0324;;;-1.58;92.76855
72975;BME280;74127;54.228;37.632;2024-01-15T16:46:15;972.9717;;;-1.6;92.67871
72975;BME280;74127;54.228;37.632;2024-01-15T16:50:15;972.9717;;;-1.6;92.67871
72975;BME280;74127;54.228;37.632;2024-01-15T16:58:15;972.8946;;;-1.61;92.67871
72975;BME280;74127;54.228;37.632;2024-01-15T17:02:15;972.9152;;;-1.69;92.56641
72975;BME280;74127;54.228;37.632;2024-01-15T17:06:15;973.0686;;;-1.63;92.68359
72975;BME280;74127;54.228;37.632;2024-01-15T17:10:15;973.0686;;;-1.63;92.68359
72975;BME280;74127;54.228;37.632;2024-01-15T17:14:15;972.9233;;;-1.58;92.76855
72975;BME280;74127;54.228;37.632;2024-01-15T17:18:15;973.0099;;;-1.6;92.7627
72975;BME280;74127;54.228;37.632;2024-01-15T17:22:15;973.0328;;;-1.62;92.71875
72975;BME280;74127;54.228;37.632;2024-01-15T17:26:15;972.8702;;;-1.6;92.78613
72975;BME280;74127;54.228;37.632;2024-01-15T17:30:15;972.8702;;;-1.6;92.78613
72975;BME280;74127;54.228;37.632;2024-01-15T17:34:15;972.9094;;;-1.58;92.7998
72975;BME280;74127;54.228;37.632;2024-01-15T17:38:15;972.9686;;;-1.59;92.74609
72975;BME280;74127;54.228;37.632;2024-01-15T17:42:15;972.8433;;;-1.48;92.8418
72975;BME280;74127;54.228;37.632;2024-01-15T17:46:15;972.8022;;;-1.45;92.8916
72975;BME280;74127;54.228;37.632;2024-01-15T17:50:15;972.8022;;;-1.45;92.8916
72975;BME280;74127;54.228;37.632;2024-01-15T17:54:15;972.7494;;;-1.43;92.89551
72975;BME280;74127;54.228;37.632;2024-01-15T17:58:15;972.717;;;-1.4;92.92285
72975;BME280;74127;54.228;37.632;2024-01-15T18:02:15;972.5607;;;-1.42;92.87695
72975;BME280;74127;54.228;37.632;2024-01-15T18:06:15;972.6609;;;-1.33;92.93848
72975;BME280;74127;54.228;37.632;2024-01-15T18:10:15;972.6609;;;-1.33;92.93848
72975;BME280;74127;54.228;37.632;2024-01-15T18:14:15;972.697;;;-1.32;92.95996
72975;BME280;74127;54.228;37.632;2024-01-15T18:18:15;972.6331;;;-1.33;92.85547
72975;BME280;74127;54.228;37.632;2024-01-15T18:22:15;972.6543;;;-1.34;92.81934
72975;BME280;74127;54.228;37.632;2024-01-15T18:26:15;972.6011;;;-1.35;92.83887
72975;BME280;74127;54.228;37.632;2024-01-15T18:30:18;972.6011;;;-1.35;92.83887
72975;BME280;74127;54.228;37.632;2024-01-15T18:34:15;972.5863;;;-1.4;92.72363
72975;BME280;74127;54.228;37.632;2024-01-15T18:38:15;972.5388;;;-1.4;92.72363
72975;BME280;74127;54.228;37.632;2024-01-15T18:42:15;972.4003;;;-1.48;92.59082
72975;BME280;74127;54.228;37.632;2024-01-15T18:46:15;972.3408;;;-1.57;92.44824
72975;BME280;74127;54.228;37.632;2024-01-15T18:50:15;972.3408;;;-1.57;92.44824
72975;BME280;74127;54.228;37.632;2024-01-15T18:54:15;972.3279;;;-1.57;92.42578
72975;BME280;74127;54.228;37.632;2024-01-15T18:58:15;972.2704;;;-1.53;92.60156
72975;BME280;74127;54.228;37.632;2024-01-15T19:02:15;972.3994;;;-1.51;92.63672
72975;BME280;74127;54.228;37.632;2024-01-15T19:06:15;972.3074;;;-1.51;92.67871
72975;BME280;74127;54.228;37.632;2024-01-15T19:10:15;972.3074;;;-1.51;92.67871
72975;BME280;74127;54.228;37.632;2024-01-15T19:14:15;972.2809;;;-1.5;92.65918
72975;BME280;74127;54.228;37.632;2024-01-15T19:18:15;972.1722;;;-1.5;92.68262
72975;BME280;74127;54.228;37.632;2024-01-15T19:22:15;972.1661;;;-1.58;92.45508
72975;BME280;74127;54.228;37.632;2024-01-15T19:26:15;972.2507;;;-1.66;92.33398
72975;BME280;74127;54.228;37.632;2024-01-15T19:30:15;972.2507;;;-1.66;92.33398
72975;BME280;74127;54.228;37.632;2024-01-15T19:34:15;972.2251;;;-1.71;92.26953
72975;BME280;74127;54.228;37.632;2024-01-15T19:38:15;972.2668;;;-1.71;92.38477
72975;BME280;74127;54.228;37.632;2024-01-15T19:42:15;971.9897;;;-1.76;92.28027
72975;BME280;74127;54.228;37.632;2024-01-15T19:46:15;972.137;;;-1.79;92.30371
72975;BME280;74127;54.228;37.632;2024-01-15T19:50:15;972.137;;;-1.79;92.30371
72975;BME280;74127;54.228;37.632;2024-01-15T19:54:15;972.119;;;-1.79;92.2627
72975;BME280;74127;54.228;37.632;2024-01-15T19:58:15;972.1362;;;-1.92;92.13184
72975;BME280;74127;54.228;37.632;2024-01-15T20:02:15;972.1021;;;-1.79;92.36719
72975;BME280;74127;54.228;37.632;2024-01-15T20:06:15;972.1206;;;-1.73;92.55859
72975;BME280;74127;54.228;37.632;2024-01-15T20:10:15;972.1206;;;-1.73;92.55859
72975;BME280;74127;54.228;37.632;2024-01-15T20:14:15;972.2402;;;-1.76;92.5
72975;BME280;74127;54.228;37.632;2024-01-15T20:18:15;972.1765;;;-1.71;92.55273
72975;BME280;74127;54.228;37.632;2024-01-15T20:22:15;972.2457;;;-1.6;92.74219
72975;BME280;74127;54.228;37.632;2024-01-15T20:26:15;972.3812;;;-1.47;92.86621
72975;BME280;74127;54.228;37.632;2024-01-15T20:30:15;972.3812;;;-1.47;92.86621
72975;BME280;74127;54.228;37.632;2024-01-15T20:34:15;972.5306;;;-1.33;92.88672
72975;BME280;74127;54.228;37.632;2024-01-15T20:38:15;972.4272;;;-1.3;93.01758